Time;durP1;ratioP1;P1;durP2;ratioP2;P2;SDS_P1;SDS_P2;PMS_P1;PMS_P2;Temp;Humidity;BMP_temperature;BMP_pressure;BME280_temperature;BME280_humidity;BME280_pressure;Samples;Min_cycle;Max_cycle;Signal;HPM_P1;HPM_P2
2020/12/26 00:00:21;;;;;;;18.40;16.70;;;0.70;99.90;;;;;;5018565;28;20874;-78
2020/12/26 00:02:48;;;;;;;18.37;16.77;;;0.70;99.90;;;;;;5017225;28;20923;-77
2020/12/26 00:05:14;;;;;;;17.20;15.70;;;0.70;99.90;;;;;;5015087;28;20494;-78
2020/12/26 00:07:40;;;;;;;17.43;15.93;;;0.60;99.90;;;;;;5013766;28;20526;-77
2020/12/26 00:10:07;;;;;;;18.53;16.70;;;0.60;99.90;;;;;;5020199;28;20485;-77
2020/12/26 00:12:34;;;;;;;18.37;16.77;;;0.60;99.90;;;;;;5024258;28;20500;-78
2020/12/26 00:15:01;;;;;;;18.00;16.20;;;0.60;99.90;;;;;;4995507;28;20470;-77
2020/12/26 00:17:27;;;;;;;17.00;15.50;;;0.50;99.90;;;;;;5018870;28;20427;-77
2020/12/26 00:19:54;;;;;;;17.70;16.10;;;0.50;99.90;;;;;;5022483;28;20485;-77
2020/12/26 00:22:20;;;;;;;19.00;17.23;;;0.50;99.90;;;;;;5014946;28;20534;-78
2020/12/26 00:24:46;;;;;;;18.97;17.23;;;0.50;99.90;;;;;;5000412;28;20467;-77
2020/12/26 00:27:13;;;;;;;19.50;17.53;;;0.50;99.90;;;;;;5018187;28;20573;-77
2020/12/26 00:29:39;;;;;;;18.57;16.87;;;0.50;99.90;;;;;;5018593;28;20435;-77
2020/12/26 00:32:06;;;;;;;18.50;16.70;;;0.50;99.90;;;;;;5001898;28;20469;-77
2020/12/26 00:34:32;;;;;;;18.17;16.50;;;0.50;99.90;;;;;;5016323;28;20486;-77
2020/12/26 00:36:59;;;;;;;17.63;15.87;;;0.50;99.90;;;;;;5017628;28;20460;-78
2020/12/26 00:39:25;;;;;;;17.90;16.20;;;0.50;99.90;;;;;;5006486;28;21011;-77
2020/12/26 00:41:51;;;;;;;17.53;15.87;;;0.50;99.90;;;;;;5025460;28;20490;-78
2020/12/26 00:44:17;;;;;;;18.57;16.87;;;0.50;99.90;;;;;;5003029;28;20444;-78
2020/12/26 00:46:44;;;;;;;18.30;16.60;;;0.50;99.90;;;;;;5022407;28;20463;-77
2020/12/26 00:49:11;;;;;;;17.20;15.60;;;0.40;99.90;;;;;;5003775;28;20488;-77
2020/12/26 00:51:37;;;;;;;18.10;16.20;;;0.40;99.90;;;;;;5001007;28;20440;-77
2020/12/26 00:54:04;;;;;;;18.53;16.83;;;0.40;99.90;;;;;;4999590;28;20482;-77
2020/12/26 00:56:35;;;;;;;18.63;16.93;;;0.40;99.90;;;;;;5023059;28;20427;-77
2020/12/26 00:59:02;;;;;;;18.07;16.37;;;0.30;99.90;;;;;;5006274;28;20451;-77
2020/12/26 01:01:29;;;;;;;17.40;15.93;;;0.30;99.90;;;;;;4998471;28;20951;-77
2020/12/26 01:04:08;;;;;;;18.60;16.80;;;0.30;99.90;;;;;;5006668;28;20891;-77
2020/12/26 01:06:35;;;;;;;18.07;16.47;;;0.30;99.90;;;;;;5002686;28;20462;-77
2020/12/26 01:09:01;;;;;;;18.27;16.40;;;0.30;99.90;;;;;;5006209;28;20540;-78
2020/12/26 01:11:27;;;;;;;20.33;17.07;;;0.20;99.90;;;;;;5016886;28;20432;-78
2020/12/26 01:13:53;;;;;;;17.57;16.07;;;0.20;99.90;;;;;;5003621;28;20509;-77
2020/12/26 01:16:20;;;;;;;19.77;17.67;;;0.20;99.90;;;;;;5003721;28;21042;-78
2020/12/26 01:18:46;;;;;;;18.40;16.70;;;0.20;99.90;;;;;;5022633;28;20451;-78
2020/12/26 01:21:13;;;;;;;20.10;18.00;;;0.20;99.90;;;;;;5022522;28;20521;-78
2020/12/26 01:23:41;;;;;;;19.33;17.43;;;0.20;99.90;;;;;;5021594;28;20497;-77
2020/12/26 01:26:08;;;;;;;17.80;16.23;;;0.20;99.90;;;;;;5019108;28;20493;-78
2020/12/26 01:28:34;;;;;;;19.13;17.37;;;0.20;99.90;;;;;;5006186;28;20530;-78
2020/12/26 01:31:00;;;;;;;18.50;16.63;;;0.20;99.90;;;;;;5024327;28;21011;-77
2020/12/26 01:33:27;;;;;;;18.30;16.60;;;0.20;99.90;;;;;;5023578;28;21043;-77
2020/12/26 01:35:53;;;;;;;17.87;16.17;;;0.20;99.90;;;;;;5002886;28;20503;-78
2020/12/26 01:38:19;;;;;;;18.37;16.57;;;0.20;99.90;;;;;;5024003;28;20455;-77
2020/12/26 01:40:49;;;;;;;17.33;15.73;;;0.20;99.90;;;;;;5008478;28;20486;-77
2020/12/26 01:43:15;;;;;;;17.50;15.80;;;0.10;99.90;;;;;;5017799;28;20432;-77
2020/12/26 01:45:42;;;;;;;18.00;16.30;;;0.10;99.90;;;;;;4992364;28;21068;-77
2020/12/26 01:48:13;;;;;;;18.43;16.63;;;0.10;99.90;;;;;;5005356;28;20550;-77
2020/12/26 01:50:40;;;;;;;19.63;17.80;;;0.10;99.90;;;;;;4994095;28;20983;-77
2020/12/26 01:53:06;;;;;;;18.83;17.20;;;0.10;99.90;;;;;;5011575;28;20945;-77
2020/12/26 01:55:33;;;;;;;19.50;17.67;;;0.10;99.90;;;;;;5019652;28;20890;-77
2020/12/26 01:58:03;;;;;;;18.97;17.30;;;0.10;99.90;;;;;;5002159;28;20487;-77
2020/12/26 02:00:30;;;;;;;18.43;16.80;;;0.10;99.90;;;;;;5003352;28;20563;-78
2020/12/26 02:02:56;;;;;;;18.83;17.07;;;0.20;99.90;;;;;;5002459;28;20495;-78
2020/12/26 02:05:22;;;;;;;18.43;16.47;;;0.20;99.90;;;;;;5021005;28;20541;-77
2020/12/26 02:07:49;;;;;;;18.20;16.60;;;0.30;99.90;;;;;;5003341;28;20555;-77
2020/12/26 02:10:15;;;;;;;18.43;16.67;;;0.40;99.90;;;;;;5003846;28;21041;-77
2020/12/26 02:12:42;;;;;;;17.73;16.03;;;0.40;99.90;;;;;;5001495;28;20553;-77
2020/12/26 02:15:13;;;;;;;17.10;15.67;;;0.40;99.90;;;;;;5000515;28;20487;-78
2020/12/26 02:17:39;;;;;;;18.00;16.40;;;0.40;99.90;;;;;;4991163;28;20435;-78
2020/12/26 02:20:06;;;;;;;19.17;17.37;;;0.40;99.90;;;;;;5000808;28;20460;-77
2020/12/26 02:22:32;;;;;;;18.23;16.60;;;0.50;99.90;;;;;;4990640;28;20476;-77
2020/12/26 02:24:59;;;;;;;17.10;15.70;;;0.50;99.90;;;;;;5005676;28;20471;-77
2020/12/26 02:27:26;;;;;;;17.17;15.60;;;0.50;99.90;;;;;;5001294;28;20495;-77
2020/12/26 02:29:52;;;;;;;14.97;13.57;;;0.50;99.90;;;;;;5001838;28;20547;-77
2020/12/26 02:32:18;;;;;;;14.40;13.10;;;0.50;99.90;;;;;;5002927;28;20454;-77
2020/12/26 02:34:44;;;;;;;14.60;13.17;;;0.50;99.90;;;;;;5000879;28;20513;-77
2020/12/26 02:37:11;;;;;;;14.70;13.23;;;0.50;99.90;;;;;;5000173;28;20833;-77
2020/12/26 02:39:37;;;;;;;14.47;13.10;;;0.40;99.90;;;;;;5004206;28;20494;-78
2020/12/26 02:42:04;;;;;;;15.30;13.53;;;0.40;99.90;;;;;;5004245;28;20483;-77
2020/12/26 02:44:30;;;;;;;14.37;13.00;;;0.40;99.90;;;;;;5018132;28;20610;-78
2020/12/26 02:46:57;;;;;;;14.07;12.70;;;0.30;99.90;;;;;;5019119;28;20486;-77
2020/12/26 02:49:23;;;;;;;14.87;13.50;;;0.30;99.90;;;;;;5001223;28;20538;-78
2020/12/26 02:51:49;;;;;;;16.60;14.67;;;0.30;99.90;;;;;;5017770;28;20528;-78
2020/12/26 02:54:15;;;;;;;17.27;15.57;;;0.30;99.90;;;;;;4998620;28;20458;-77
2020/12/26 02:56:42;;;;;;;16.90;15.10;;;0.40;99.90;;;;;;5002760;28;21050;-77
2020/12/26 02:59:09;;;;;;;16.10;14.57;;;0.40;99.90;;;;;;5018412;28;20548;-77
2020/12/26 03:01:39;;;;;;;16.63;15.00;;;0.50;99.90;;;;;;4996615;28;20518;-78
2020/12/26 03:04:06;;;;;;;16.77;15.10;;;0.60;99.90;;;;;;5003598;28;20589;-77
2020/12/26 03:06:32;;;;;;;17.40;15.77;;;0.70;99.90;;;;;;5001036;28;20567;-78
2020/12/26 03:08:58;;;;;;;16.63;14.93;;;0.70;99.90;;;;;;5018086;28;20466;-77
2020/12/26 03:11:25;;;;;;;15.53;14.13;;;0.80;99.90;;;;;;4997336;28;20468;-77
2020/12/26 03:13:51;;;;;;;16.50;14.90;;;0.80;99.90;;;;;;5001647;28;20506;-77
2020/12/26 03:16:19;;;;;;;17.20;15.50;;;0.80;99.90;;;;;;5019647;28;20495;-77
2020/12/26 03:18:46;;;;;;;17.57;15.70;;;0.80;99.90;;;;;;5019672;28;20523;-77
2020/12/26 03:21:13;;;;;;;16.20;14.60;;;0.80;99.90;;;;;;5003030;28;20486;-77
2020/12/26 03:23:39;;;;;;;16.40;14.90;;;0.80;99.90;;;;;;5014393;28;20518;-77
2020/12/26 03:26:05;;;;;;;16.47;14.90;;;0.90;99.90;;;;;;4996335;28;20506;-78
2020/12/26 03:28:31;;;;;;;16.33;14.63;;;0.80;99.90;;;;;;5004013;28;20498;-78
2020/12/26 03:30:58;;;;;;;16.70;15.10;;;0.80;99.90;;;;;;5022068;28;20439;-77
2020/12/26 03:33:25;;;;;;;16.50;14.90;;;0.80;99.90;;;;;;5018655;28;20470;-78
2020/12/26 03:35:51;;;;;;;16.83;15.13;;;0.80;99.90;;;;;;5017064;28;20493;-77
2020/12/26 03:38:17;;;;;;;16.60;15.13;;;0.80;99.90;;;;;;4997875;28;20480;-77
2020/12/26 03:40:43;;;;;;;15.97;14.27;;;0.80;99.90;;;;;;5019292;28;20481;-77
2020/12/26 03:43:10;;;;;;;14.90;13.60;;;0.80;99.90;;;;;;5002154;28;20546;-77
2020/12/26 03:45:36;;;;;;;15.73;14.30;;;0.80;99.90;;;;;;5002068;28;20522;-77
2020/12/26 03:48:02;;;;;;;17.23;15.53;;;0.80;99.90;;;;;;5002347;28;20580;-77
2020/12/26 03:50:29;;;;;;;18.60;16.77;;;0.80;99.90;;;;;;4998657;28;20502;-77
2020/12/26 03:52:55;;;;;;;17.90;16.20;;;0.70;99.90;;;;;;5000882;28;20483;-78
2020/12/26 03:55:22;;;;;;;17.50;15.90;;;0.80;99.90;;;;;;5004028;28;20539;-78
2020/12/26 03:57:48;;;;;;;18.93;17.00;;;0.80;99.90;;;;;;5005494;28;20532;-78
2020/12/26 04:00:14;;;;;;;17.97;16.17;;;0.70;99.90;;;;;;5021625;28;20491;-77
2020/12/26 04:02:41;;;;;;;17.03;15.40;;;0.70;99.90;;;;;;4994508;28;20544;-76
2020/12/26 04:05:07;;;;;;;17.83;16.23;;;0.60;99.90;;;;;;4993172;28;20558;-78
2020/12/26 04:07:34;;;;;;;16.47;15.00;;;0.50;99.90;;;;;;4982629;28;20471;-78
2020/12/26 04:10:00;;;;;;;17.53;15.93;;;0.50;99.90;;;;;;5011847;28;20495;-78
2020/12/26 04:12:26;;;;;;;17.37;15.80;;;0.50;99.90;;;;;;4994157;28;21002;-78
2020/12/26 04:14:53;;;;;;;18.37;16.73;;;0.50;99.90;;;;;;5012965;28;20491;-77
2020/12/26 04:17:22;;;;;;;17.00;15.53;;;0.40;99.90;;;;;;5018475;28;20480;-77
2020/12/26 04:19:49;;;;;;;18.97;16.60;;;0.40;99.90;;;;;;4995210;28;20447;-76
2020/12/26 04:22:15;;;;;;;18.50;16.60;;;0.50;99.90;;;;;;5014923;28;20478;-77
2020/12/26 04:24:43;;;;;;;18.03;16.50;;;0.60;99.90;;;;;;5011449;28;20500;-77
2020/12/26 04:27:10;;;;;;;18.83;17.03;;;0.60;99.90;;;;;;5014165;28;20493;-77
2020/12/26 04:29:36;;;;;;;17.60;16.00;;;0.60;99.90;;;;;;5001561;28;20480;-77
2020/12/26 04:32:03;;;;;;;17.77;16.17;;;0.50;99.90;;;;;;5006008;28;20486;-77
2020/12/26 04:34:29;;;;;;;17.50;15.90;;;0.50;99.90;;;;;;5012623;28;21033;-76
2020/12/26 04:36:55;;;;;;;18.00;16.20;;;0.50;99.90;;;;;;5012639;28;20481;-77
2020/12/26 04:39:21;;;;;;;18.23;16.73;;;0.60;99.90;;;;;;5000047;28;20492;-78
2020/12/26 04:41:49;;;;;;;17.90;16.20;;;0.60;99.90;;;;;;5011939;28;20510;-78
2020/12/26 04:44:16;;;;;;;18.80;17.07;;;0.60;99.90;;;;;;4997170;28;20487;-77
2020/12/26 04:46:43;;;;;;;18.53;16.77;;;0.60;99.90;;;;;;5012425;28;20859;-77
2020/12/26 04:49:11;;;;;;;18.03;16.10;;;0.50;99.90;;;;;;5011872;28;20442;-77
2020/12/26 04:51:38;;;;;;;19.23;17.37;;;0.50;99.90;;;;;;5012406;28;20464;-77
2020/12/26 04:54:14;;;;;;;19.00;17.10;;;0.60;99.90;;;;;;5000565;28;20536;-77
2020/12/26 04:56:44;;;;;;;18.20;16.40;;;0.60;99.90;;;;;;5004215;28;21022;-77
2020/12/26 04:59:13;;;;;;;17.67;16.07;;;0.60;99.90;;;;;;5003905;28;20481;-77
2020/12/26 05:01:41;;;;;;;17.97;16.27;;;0.60;99.90;;;;;;5012623;28;20852;-78
2020/12/26 05:04:08;;;;;;;17.87;16.20;;;0.60;99.90;;;;;;5012128;28;20514;-77
2020/12/26 05:06:45;;;;;;;18.43;16.73;;;0.50;99.90;;;;;;4999375;28;20538;-77
2020/12/26 05:09:12;;;;;;;18.83;17.07;;;0.60;99.90;;;;;;5004034;28;20443;-77
2020/12/26 05:11:39;;;;;;;17.17;15.67;;;0.60;99.90;;;;;;4998744;28;20512;-76
2020/12/26 05:14:07;;;;;;;18.20;16.50;;;0.60;99.90;;;;;;5010654;28;20871;-76
2020/12/26 05:16:34;;;;;;;16.87;15.30;;;0.70;99.90;;;;;;5010520;28;20793;-76
2020/12/26 05:19:01;;;;;;;16.80;15.30;;;0.60;99.90;;;;;;5010332;28;20515;-77
2020/12/26 05:21:27;;;;;;;17.30;15.90;;;0.60;99.90;;;;;;4996754;28;20483;-76
2020/12/26 05:24:07;;;;;;;18.00;16.40;;;0.60;99.90;;;;;;4994715;28;20489;-75
2020/12/26 05:26:41;;;;;;;17.23;15.73;;;0.60;99.90;;;;;;5010172;28;20456;-76
2020/12/26 05:29:08;;;;;;;17.93;16.20;;;0.70;99.90;;;;;;4998680;28;20485;-76
2020/12/26 05:31:54;;;;;;;18.33;16.63;;;0.70;99.90;;;;;;5002801;28;20435;-75
2020/12/26 05:34:21;;;;;;;18.87;17.03;;;0.70;99.90;;;;;;5000670;28;20525;-75
2020/12/26 05:36:47;;;;;;;17.90;16.20;;;0.70;99.90;;;;;;5017006;28;20467;-76
2020/12/26 05:39:14;;;;;;;20.30;18.17;;;0.70;99.90;;;;;;5015239;28;20467;-77
2020/12/26 05:41:42;;;;;;;19.20;17.37;;;0.70;99.90;;;;;;5002348;28;20501;-77
2020/12/26 05:44:09;;;;;;;19.27;17.50;;;0.70;99.90;;;;;;5001854;28;20450;-77
2020/12/26 05:46:35;;;;;;;19.57;17.67;;;0.70;99.90;;;;;;5003673;28;21061;-77
2020/12/26 05:49:26;;;;;;;19.53;17.90;;;0.70;99.90;;;;;;5018632;28;20955;-77
2020/12/26 05:51:57;;;;;;;20.03;18.03;;;0.70;99.90;;;;;;5018476;28;20423;-77
2020/12/26 05:54:24;;;;;;;19.10;17.50;;;0.70;99.90;;;;;;5022082;28;20457;-77
2020/12/26 05:57:07;;;;;;;18.80;17.23;;;0.70;99.90;;;;;;5001715;28;20503;-77
2020/12/26 05:59:33;;;;;;;19.00;17.43;;;0.60;99.90;;;;;;5001804;28;20486;-77
2020/12/26 06:02:20;;;;;;;19.80;18.00;;;0.60;99.90;;;;;;5001285;28;20471;-77
2020/12/26 06:04:52;;;;;;;19.53;17.63;;;0.50;99.90;;;;;;5011990;28;20498;-77
2020/12/26 06:07:22;;;;;;;19.63;17.90;;;0.50;99.90;;;;;;5016920;28;20525;-76
2020/12/26 06:09:51;;;;;;;19.20;17.40;;;0.50;99.90;;;;;;5004739;28;20475;-77
2020/12/26 06:12:19;;;;;;;20.23;18.50;;;0.40;99.90;;;;;;5017605;28;20815;-76
2020/12/26 06:14:47;;;;;;;19.53;17.63;;;0.40;99.90;;;;;;4999394;28;20471;-76
2020/12/26 06:17:20;;;;;;;19.53;17.83;;;0.30;99.90;;;;;;5014185;28;20447;-76
2020/12/26 06:19:56;;;;;;;19.97;18.10;;;0.30;99.90;;;;;;5009267;28;20440;-76
2020/12/26 06:22:23;;;;;;;27.07;19.37;;;0.40;99.90;;;;;;4999759;28;20448;-75
2020/12/26 06:24:50;;;;;;;17.70;15.83;;;0.40;99.90;;;;;;5001174;28;20502;-76
2020/12/26 06:27:16;;;;;;;18.50;16.67;;;0.40;99.90;;;;;;5016329;28;20966;-75
2020/12/26 06:29:44;;;;;;;17.63;15.93;;;0.40;99.90;;;;;;5005423;28;21026;-76
2020/12/26 06:32:12;;;;;;;18.17;16.47;;;0.40;99.90;;;;;;4996715;28;20555;-77
2020/12/26 06:34:40;;;;;;;17.73;16.03;;;0.40;99.90;;;;;;5021372;28;20462;-77
2020/12/26 06:37:08;;;;;;;19.93;18.13;;;0.30;99.90;;;;;;4996522;28;20539;-76
2020/12/26 06:39:35;;;;;;;20.37;18.30;;;0.30;99.90;;;;;;4998066;28;20474;-76
2020/12/26 06:42:18;;;;;;;18.43;16.77;;;0.30;99.90;;;;;;5013974;28;21294;-77
2020/12/26 06:44:54;;;;;;;18.50;16.70;;;0.20;99.90;;;;;;4993624;28;20912;-76
2020/12/26 06:47:36;;;;;;;19.90;18.00;;;0.20;99.90;;;;;;5001878;28;20971;-76
2020/12/26 06:50:19;;;;;;;21.13;19.00;;;0.30;99.90;;;;;;5010144;28;20442;-77
2020/12/26 06:52:47;;;;;;;20.20;18.33;;;0.30;99.90;;;;;;5015291;28;20436;-76
2020/12/26 06:55:44;;;;;;;19.10;17.47;;;0.40;99.90;;;;;;5020713;28;20479;-76
2020/12/26 06:58:12;;;;;;;21.13;19.03;;;0.40;99.90;;;;;;5018400;28;21027;-77
2020/12/26 07:00:39;;;;;;;20.60;18.60;;;0.40;99.90;;;;;;5001613;28;20463;-76
2020/12/26 07:03:15;;;;;;;20.83;18.63;;;0.50;99.90;;;;;;4998631;28;20483;-77
2020/12/26 07:05:42;;;;;;;21.27;19.23;;;0.50;99.90;;;;;;5015311;28;20521;-76
2020/12/26 07:08:19;;;;;;;21.13;19.23;;;0.60;99.90;;;;;;4997424;28;20512;-76
2020/12/26 07:10:46;;;;;;;20.57;18.47;;;0.60;99.90;;;;;;5000201;28;20459;-76
2020/12/26 07:13:40;;;;;;;19.23;17.63;;;0.60;99.90;;;;;;5014410;28;20944;-76
2020/12/26 07:16:27;;;;;;;20.30;18.30;;;0.70;99.90;;;;;;5009966;28;20506;-76
2020/12/26 07:18:53;;;;;;;20.80;18.73;;;0.70;99.90;;;;;;4997203;28;20483;-77
2020/12/26 07:21:21;;;;;;;20.67;18.80;;;0.70;99.90;;;;;;5001466;28;20500;-77
2020/12/26 07:23:50;;;;;;;24.63;22.17;;;0.70;99.90;;;;;;4992748;28;20973;-76
2020/12/26 07:26:18;;;;;;;23.23;21.03;;;0.80;99.90;;;;;;5001163;28;20549;-76
2020/12/26 07:28:45;;;;;;;23.73;21.33;;;0.80;99.90;;;;;;4995027;28;20471;-76
2020/12/26 07:31:17;;;;;;;27.23;24.33;;;0.80;99.90;;;;;;4996616;28;20484;-76
2020/12/26 07:33:43;;;;;;;30.73;25.67;;;0.90;99.90;;;;;;4999043;28;20801;-76
2020/12/26 07:36:19;;;;;;;23.13;20.93;;;0.90;99.90;;;;;;5013780;28;20478;-75
2020/12/26 07:39:01;;;;;;;22.97;20.87;;;1.00;99.90;;;;;;5011322;28;20440;-76
2020/12/26 07:41:28;;;;;;;20.73;18.73;;;1.00;99.90;;;;;;4994140;28;20473;-77
2020/12/26 07:43:54;;;;;;;20.50;18.57;;;1.10;99.90;;;;;;5011529;28;20515;-75
2020/12/26 07:46:20;;;;;;;20.23;18.40;;;1.10;99.90;;;;;;5010788;28;20498;-76
2020/12/26 07:48:54;;;;;;;19.73;17.77;;;1.20;99.90;;;;;;5011679;28;20475;-77
2020/12/26 07:51:20;;;;;;;18.67;16.90;;;1.20;99.90;;;;;;4996282;28;20483;-76
2020/12/26 07:53:57;;;;;;;18.97;17.37;;;1.20;99.90;;;;;;5021100;28;20466;-78
2020/12/26 07:56:27;;;;;;;20.10;18.23;;;1.20;99.90;;;;;;5013827;28;20525;-76
2020/12/26 07:58:56;;;;;;;21.23;19.17;;;1.30;99.90;;;;;;5005710;28;20543;-76
2020/12/26 08:01:24;;;;;;;20.10;18.40;;;1.30;99.90;;;;;;4995757;28;20454;-76
2020/12/26 08:03:59;;;;;;;20.40;18.47;;;1.30;99.90;;;;;;5002401;28;20451;-77
2020/12/26 08:06:25;;;;;;;19.17;17.47;;;1.40;99.90;;;;;;4983366;28;21000;-77
2020/12/26 08:08:52;;;;;;;20.77;18.67;;;1.40;99.90;;;;;;5011029;28;20517;-77
2020/12/26 08:11:23;;;;;;;20.50;18.57;;;1.50;99.90;;;;;;5014578;28;20462;-76
2020/12/26 08:14:01;;;;;;;20.17;18.47;;;1.50;99.90;;;;;;4994245;28;20440;-76
2020/12/26 08:16:27;;;;;;;19.83;18.13;;;1.50;99.90;;;;;;5011820;28;20951;-76
2020/12/26 08:18:54;;;;;;;21.83;19.57;;;1.50;99.90;;;;;;5000920;28;20476;-76
2020/12/26 08:21:21;;;;;;;19.90;18.17;;;1.50;99.90;;;;;;5010954;28;20465;-77
2020/12/26 08:23:55;;;;;;;19.33;17.63;;;1.60;99.90;;;;;;5002642;28;20918;-77
2020/12/26 08:26:22;;;;;;;20.93;18.93;;;1.70;99.90;;;;;;5010555;28;20978;-77
2020/12/26 08:28:49;;;;;;;17.83;15.93;;;1.80;99.90;;;;;;5011458;28;20472;-77
2020/12/26 08:31:21;;;;;;;16.97;15.40;;;2.00;99.90;;;;;;5004669;28;20538;-77
2020/12/26 08:33:51;;;;;;;18.87;17.27;;;2.10;99.90;;;;;;4998656;28;21035;-78
2020/12/26 08:36:25;;;;;;;19.77;17.80;;;2.20;99.90;;;;;;5012579;28;20480;-77
2020/12/26 08:38:55;;;;;;;19.33;17.47;;;2.50;99.90;;;;;;5016207;28;20526;-78
2020/12/26 08:41:22;;;;;;;18.50;16.90;;;2.70;99.90;;;;;;5017539;28;20461;-78
2020/12/26 08:43:49;;;;;;;18.40;16.77;;;2.90;99.90;;;;;;4999859;28;20456;-76
2020/12/26 08:46:18;;;;;;;14.03;12.63;;;3.10;99.90;;;;;;5011439;28;21012;-75
2020/12/26 08:48:44;;;;;;;11.10;7.53;;;3.20;99.90;;;;;;5017487;28;21065;-77
2020/12/26 08:51:18;;;;;;;10.40;7.77;;;3.30;99.90;;;;;;5014547;28;20935;-78
2020/12/26 08:53:45;;;;;;;9.63;7.30;;;3.40;99.90;;;;;;5004894;28;20450;-77
2020/12/26 08:56:11;;;;;;;9.47;7.53;;;3.30;99.90;;;;;;4997902;28;20465;-77
2020/12/26 08:58:38;;;;;;;10.77;7.37;;;3.30;99.90;;;;;;5019806;28;20458;-77
2020/12/26 09:01:06;;;;;;;9.50;7.13;;;3.20;99.90;;;;;;5018061;28;20794;-77
2020/12/26 09:03:34;;;;;;;9.00;6.93;;;3.20;99.90;;;;;;5020737;28;20475;-77
2020/12/26 09:06:02;;;;;;;10.90;9.70;;;3.20;99.90;;;;;;4998690;28;20505;-77
2020/12/26 09:08:30;;;;;;;12.27;7.50;;;3.10;99.90;;;;;;5012828;28;20472;-77
2020/12/26 09:11:02;;;;;;;10.53;7.90;;;3.20;99.90;;;;;;5019628;28;20432;-77
2020/12/26 09:13:34;;;;;;;11.97;9.87;;;3.20;99.90;;;;;;5011035;28;20467;-77
2020/12/26 09:16:07;;;;;;;16.93;15.10;;;3.20;99.90;;;;;;5021470;28;20825;-77
2020/12/26 09:18:43;;;;;;;12.40;11.30;;;3.30;99.90;;;;;;4991640;28;20486;-76
2020/12/26 09:21:21;;;;;;;12.23;9.07;;;3.30;99.90;;;;;;5000325;28;20492;-76
2020/12/26 09:23:48;;;;;;;15.03;13.53;;;3.30;99.90;;;;;;5005698;28;20454;-76
2020/12/26 09:26:16;;;;;;;14.03;12.77;;;3.30;99.90;;;;;;5020590;28;20468;-78
2020/12/26 09:28:50;;;;;;;10.20;9.30;;;3.40;99.90;;;;;;5004383;28;20556;-76
2020/12/26 09:31:18;;;;;;;9.33;8.33;;;3.40;99.90;;;;;;5016316;28;20867;-76
2020/12/26 09:33:46;;;;;;;13.93;12.80;;;3.50;99.90;;;;;;5022086;28;20534;-77
2020/12/26 09:36:14;;;;;;;12.87;11.70;;;3.50;99.90;;;;;;5000003;28;20519;-77
2020/12/26 09:38:41;;;;;;;13.83;12.77;;;3.40;99.90;;;;;;5013656;28;20808;-77
2020/12/26 09:41:16;;;;;;;14.23;12.87;;;3.40;99.90;;;;;;5022660;28;20473;-77
2020/12/26 09:43:45;;;;;;;11.90;10.90;;;3.40;99.90;;;;;;5008202;28;20520;-76
2020/12/26 09:46:11;;;;;;;14.83;13.53;;;3.30;99.90;;;;;;5001256;28;20505;-77
2020/12/26 09:48:38;;;;;;;16.60;15.23;;;3.20;99.90;;;;;;5015404;28;20566;-77
2020/12/26 09:51:11;;;;;;;12.93;11.83;;;3.20;99.90;;;;;;5006514;28;20452;-77
2020/12/26 09:53:37;;;;;;;14.57;13.40;;;3.30;99.90;;;;;;4994152;28;20471;-76
2020/12/26 09:56:06;;;;;;;10.23;9.13;;;3.30;99.90;;;;;;5018644;28;20874;-76
2020/12/26 09:58:32;;;;;;;16.27;14.80;;;3.20;99.90;;;;;;5021991;28;20459;-77
2020/12/26 10:00:59;;;;;;;10.03;9.03;;;3.20;99.90;;;;;;5017884;28;20833;-77
2020/12/26 10:03:25;;;;;;;14.50;13.30;;;3.20;99.90;;;;;;5023122;28;20957;-77
2020/12/26 10:05:51;;;;;;;15.43;14.13;;;3.10;99.90;;;;;;5001427;28;20895;-77
2020/12/26 10:08:19;;;;;;;14.60;13.40;;;3.10;99.90;;;;;;5015622;28;20471;-77
2020/12/26 10:10:45;;;;;;;14.47;13.17;;;3.10;99.90;;;;;;5017442;28;20451;-77
2020/12/26 10:13:11;;;;;;;14.57;13.27;;;3.10;99.90;;;;;;4996299;28;20930;-76
2020/12/26 10:15:37;;;;;;;14.33;13.13;;;3.20;99.90;;;;;;5016525;28;20464;-76
2020/12/26 10:18:04;;;;;;;14.97;13.77;;;3.20;99.90;;;;;;5013451;28;20435;-77
2020/12/26 10:20:30;;;;;;;13.77;12.67;;;3.30;99.90;;;;;;4996550;28;20473;-77
2020/12/26 10:22:56;;;;;;;14.50;13.03;;;3.40;99.90;;;;;;5015903;28;20855;-76
2020/12/26 10:25:25;;;;;;;14.10;12.90;;;3.40;99.90;;;;;;5014752;28;20482;-76
2020/12/26 10:27:51;;;;;;;13.73;12.63;;;3.40;99.90;;;;;;5017847;28;21373;-77
2020/12/26 10:30:18;;;;;;;14.60;13.33;;;3.40;99.90;;;;;;4991424;28;20474;-76
2020/12/26 10:32:44;;;;;;;13.67;12.47;;;3.40;99.90;;;;;;5000682;28;20460;-76
2020/12/26 10:35:10;;;;;;;13.97;12.80;;;3.30;99.90;;;;;;5015893;28;20903;-76
2020/12/26 10:37:37;;;;;;;14.73;13.53;;;3.40;99.90;;;;;;5023203;28;20461;-75
2020/12/26 10:40:03;;;;;;;13.97;12.87;;;3.40;99.90;;;;;;4996717;28;20862;-76
2020/12/26 10:42:30;;;;;;;13.57;12.37;;;3.30;99.90;;;;;;5020332;28;20477;-76
2020/12/26 10:44:56;;;;;;;13.83;12.77;;;3.30;99.90;;;;;;5015519;28;20502;-76
2020/12/26 10:47:23;;;;;;;13.73;12.60;;;3.30;99.90;;;;;;4999778;28;21060;-76
2020/12/26 10:49:49;;;;;;;13.03;12.03;;;3.30;99.90;;;;;;5012978;28;20482;-77
2020/12/26 10:52:15;;;;;;;14.13;13.00;;;3.30;99.90;;;;;;5014754;28;20449;-75
2020/12/26 10:54:42;;;;;;;14.87;13.47;;;3.30;99.90;;;;;;5003200;28;21054;-75
2020/12/26 10:57:08;;;;;;;14.10;13.00;;;3.20;99.90;;;;;;5016603;28;20449;-75
2020/12/26 10:59:35;;;;;;;13.87;12.67;;;3.20;99.90;;;;;;5018006;28;20463;-75
2020/12/26 11:02:02;;;;;;;13.67;12.57;;;3.20;99.90;;;;;;4999076;28;20440;-76
2020/12/26 11:04:28;;;;;;;13.27;12.33;;;3.20;99.90;;;;;;5014803;28;20483;-75
2020/12/26 11:06:54;;;;;;;12.80;11.80;;;3.10;99.90;;;;;;5023666;28;20471;-76
2020/12/26 11:09:21;;;;;;;13.07;12.00;;;3.10;99.90;;;;;;5013370;28;20511;-76
2020/12/26 11:11:48;;;;;;;12.70;11.60;;;3.10;99.90;;;;;;5021370;28;20469;-76
2020/12/26 11:14:15;;;;;;;12.63;11.73;;;3.20;99.90;;;;;;5014926;28;20531;-75
2020/12/26 11:16:47;;;;;;;13.20;12.00;;;3.40;99.90;;;;;;5000056;28;20917;-76
2020/12/26 11:19:13;;;;;;;12.37;11.37;;;3.60;99.90;;;;;;4995231;28;20987;-77
2020/12/26 11:21:39;;;;;;;12.13;11.23;;;3.80;99.90;;;;;;5015748;28;20467;-76
2020/12/26 11:24:05;;;;;;;12.73;11.77;;;3.80;99.90;;;;;;5014026;28;20487;-76
2020/12/26 11:26:32;;;;;;;12.20;11.30;;;3.90;99.90;;;;;;5012543;28;20529;-75
2020/12/26 11:28:58;;;;;;;12.37;11.40;;;4.00;99.90;;;;;;5000513;28;20920;-76
2020/12/26 11:31:25;;;;;;;12.40;11.50;;;4.10;99.90;;;;;;5014689;28;20443;-77
2020/12/26 11:33:53;;;;;;;12.53;11.53;;;4.10;99.90;;;;;;5020146;28;20447;-77
2020/12/26 11:36:20;;;;;;;12.77;11.63;;;4.00;99.90;;;;;;4998003;28;20512;-76
2020/12/26 11:38:47;;;;;;;13.03;11.83;;;4.00;99.90;;;;;;4998880;28;21021;-77
2020/12/26 11:41:17;;;;;;;13.13;12.10;;;4.10;99.90;;;;;;5004463;28;20809;-77
2020/12/26 11:43:44;;;;;;;12.80;11.90;;;4.10;99.90;;;;;;5018221;28;20466;-77
2020/12/26 11:46:10;;;;;;;13.50;12.50;;;4.10;99.90;;;;;;5013550;28;20482;-77
2020/12/26 11:48:37;;;;;;;13.03;12.13;;;4.20;99.90;;;;;;5013972;28;20510;-77
2020/12/26 11:51:05;;;;;;;13.43;12.40;;;4.20;99.90;;;;;;4999197;28;20440;-78
2020/12/26 11:53:31;;;;;;;12.70;11.90;;;4.20;99.90;;;;;;4997873;28;20549;-77
2020/12/26 11:55:57;;;;;;;13.53;12.40;;;4.30;99.90;;;;;;5013475;28;20455;-77
2020/12/26 11:58:24;;;;;;;13.60;12.50;;;4.30;99.90;;;;;;5006655;28;21050;-77
2020/12/26 12:00:52;;;;;;;13.63;12.53;;;4.40;99.90;;;;;;5014564;28;20471;-78
2020/12/26 12:03:18;;;;;;;13.00;12.00;;;4.40;99.90;;;;;;5008157;28;20487;-80
2020/12/26 12:05:45;;;;;;;12.50;11.60;;;4.40;99.90;;;;;;5015163;28;20967;-79
2020/12/26 12:08:13;;;;;;;13.53;12.43;;;4.50;99.90;;;;;;4996288;28;20565;-79
2020/12/26 12:10:39;;;;;;;13.20;12.30;;;4.40;99.90;;;;;;4997361;28;20475;-79
2020/12/26 12:13:06;;;;;;;12.80;11.90;;;4.40;99.90;;;;;;5013974;28;20822;-78
2020/12/26 12:15:32;;;;;;;12.80;11.80;;;4.40;99.90;;;;;;5013961;28;20844;-77
2020/12/26 12:18:00;;;;;;;12.97;11.97;;;4.40;99.90;;;;;;4996201;28;20487;-77
2020/12/26 12:20:27;;;;;;;12.50;11.60;;;4.40;99.90;;;;;;4994698;28;20510;-77
2020/12/26 12:22:53;;;;;;;12.63;11.73;;;4.40;99.90;;;;;;4999826;28;20447;-77
2020/12/26 12:25:21;;;;;;;12.60;11.60;;;4.40;99.90;;;;;;4998440;28;20467;-76
2020/12/26 12:27:47;;;;;;;12.57;11.60;;;4.40;99.90;;;;;;5002411;28;20516;-77
2020/12/26 12:30:14;;;;;;;12.20;11.40;;;4.40;99.90;;;;;;5002762;28;20475;-76
2020/12/26 12:32:40;;;;;;;12.30;11.30;;;4.40;99.90;;;;;;5011711;28;20532;-76
2020/12/26 12:35:07;;;;;;;12.80;11.80;;;4.40;99.90;;;;;;5018667;28;20489;-77
2020/12/26 12:37:33;;;;;;;12.13;11.33;;;4.40;99.90;;;;;;5015698;28;20785;-77
2020/12/26 12:39:59;;;;;;;12.77;11.87;;;4.50;99.90;;;;;;4998190;28;20482;-77
2020/12/26 12:42:28;;;;;;;13.77;12.30;;;4.50;99.90;;;;;;5020795;28;20439;-76